createdAt,value
2017-09-07T00:01:58.312Z,22.60
2017-09-07T00:04:25.794Z,22.70
2017-09-07T00:06:53.270Z,22.70
2017-09-07T00:09:20.750Z,22.70
2017-09-07T00:11:48.239Z,22.70
2017-09-07T00:14:15.714Z,22.70
2017-09-07T00:16:43.189Z,22.70
2017-09-07T00:19:10.667Z,22.70
2017-09-07T00:21:38.162Z,22.70
2017-09-07T00:24:05.646Z,22.70
2017-09-07T00:26:33.130Z,22.80
2017-09-07T00:29:00.612Z,22.70
2017-09-07T00:31:28.090Z,22.70
2017-09-07T00:33:55.579Z,22.60
2017-09-07T00:36:23.062Z,22.60
2017-09-07T00:38:50.530Z,22.50
2017-09-07T00:41:18.010Z,22.30
2017-09-07T00:43:45.490Z,22.20
2017-09-07T00:46:12.970Z,22.10
2017-09-07T00:48:41.404Z,22.00
2017-09-07T00:51:08.874Z,22.10
2017-09-07T00:53:36.372Z,22.00
2017-09-07T00:56:03.851Z,21.90
2017-09-07T00:58:31.324Z,22.00
2017-09-07T01:00:58.803Z,22.20
2017-09-07T01:03:26.268Z,22.20
2017-09-07T01:05:53.736Z,22.20
2017-09-07T01:08:21.215Z,22.10
2017-09-07T01:10:48.686Z,22.00
2017-09-07T01:13:16.159Z,22.40
2017-09-07T01:15:43.646Z,22.40
2017-09-07T01:18:11.122Z,22.30
2017-09-07T01:20:38.602Z,22.30
2017-09-07T01:23:06.087Z,22.30
2017-09-07T01:25:33.553Z,22.30
2017-09-07T01:28:01.035Z,22.20
2017-09-07T01:30:28.515Z,22.10
2017-09-07T01:32:55.999Z,22.20
2017-09-07T01:35:23.476Z,22.10
2017-09-07T01:37:50.954Z,22.20
2017-09-07T01:40:18.439Z,22.20
2017-09-07T01:42:45.923Z,22.10
2017-09-07T01:45:13.402Z,22.10
2017-09-07T01:47:40.886Z,22.10
2017-09-07T01:50:08.362Z,22.00
2017-09-07T01:52:35.838Z,21.90
2017-09-07T01:57:45.277Z,21.80
2017-09-07T02:00:12.751Z,21.90
2017-09-07T02:02:40.226Z,21.90
2017-09-07T02:05:07.697Z,21.90
2017-09-07T02:07:35.171Z,21.80
2017-09-07T02:10:02.648Z,21.60
2017-09-07T02:12:30.139Z,21.90
2017-09-07T02:14:57.619Z,21.90
2017-09-07T02:17:25.114Z,22.00
2017-09-07T02:19:52.586Z,21.90
2017-09-07T02:22:20.069Z,21.90
2017-09-07T02:24:47.546Z,21.90
2017-09-07T02:27:15.026Z,21.90
2017-09-07T02:29:42.516Z,21.90
2017-09-07T02:32:10.010Z,22.00
2017-09-07T02:34:37.485Z,22.00
2017-09-07T02:37:04.958Z,22.00
2017-09-07T02:39:32.448Z,21.90
2017-09-07T02:41:59.931Z,22.10
2017-09-07T02:44:27.406Z,21.90
2017-09-07T02:46:54.897Z,21.80
2017-09-07T02:49:22.373Z,21.80
2017-09-07T02:51:49.852Z,22.10
2017-09-07T02:54:17.334Z,21.90
2017-09-07T02:56:44.814Z,21.90
2017-09-07T02:59:12.297Z,21.90
2017-09-07T03:01:39.773Z,21.90
2017-09-07T03:04:07.260Z,21.80
2017-09-07T03:06:34.734Z,21.80
2017-09-07T03:09:02.220Z,21.60
2017-09-07T03:11:29.707Z,21.60
2017-09-07T03:13:57.187Z,21.40
2017-09-07T03:16:24.663Z,21.40
2017-09-07T03:18:52.136Z,21.30
2017-09-07T03:21:19.730Z,21.20
2017-09-07T03:23:47.205Z,21.20
2017-09-07T03:26:14.681Z,21.30
2017-09-07T03:28:42.158Z,21.30
2017-09-07T03:31:09.647Z,21.20
2017-09-07T03:33:37.127Z,21.20
2017-09-07T03:36:04.610Z,21.20
2017-09-07T03:38:32.093Z,21.10
2017-09-07T03:40:59.570Z,21.10
2017-09-07T03:43:28.493Z,21.00
2017-09-07T03:45:56.007Z,21.00
2017-09-07T03:48:23.627Z,20.90
2017-09-07T03:50:51.111Z,20.80
2017-09-07T03:53:18.595Z,20.90
2017-09-07T03:55:46.081Z,21.00
2017-09-07T03:58:13.557Z,21.40
2017-09-07T04:00:41.039Z,22.00
2017-09-07T04:03:08.517Z,22.30
2017-09-07T04:05:39.328Z,22.60
2017-09-07T04:08:14.868Z,22.10
2017-09-07T04:10:51.458Z,21.50
2017-09-07T04:13:25.941Z,21.30
2017-09-07T04:16:01.559Z,21.20
2017-09-07T04:18:29.848Z,20.90
2017-09-07T04:20:57.357Z,20.90
2017-09-07T04:23:24.829Z,21.00
2017-09-07T04:25:52.310Z,21.00
2017-09-07T04:28:19.785Z,21.00
2017-09-07T04:30:47.275Z,20.90
2017-09-07T04:33:15.163Z,20.80
2017-09-07T04:35:43.618Z,20.80
2017-09-07T04:38:11.924Z,20.70
2017-09-07T04:40:39.841Z,20.70
2017-09-07T04:43:07.331Z,20.70
2017-09-07T04:45:34.819Z,20.70
2017-09-07T04:48:02.312Z,20.70
2017-09-07T04:50:29.791Z,20.70
2017-09-07T04:52:57.291Z,20.70
2017-09-07T04:55:24.775Z,20.60
2017-09-07T04:57:52.254Z,20.60
2017-09-07T05:00:19.738Z,20.70
2017-09-07T05:02:47.245Z,20.80
2017-09-07T05:05:14.842Z,20.80
2017-09-07T05:07:42.482Z,20.80
2017-09-07T05:10:09.975Z,20.80
2017-09-07T05:12:37.590Z,20.70
2017-09-07T05:15:05.087Z,20.50
2017-09-07T05:17:32.753Z,20.50
2017-09-07T05:20:00.252Z,20.50
2017-09-07T05:22:27.747Z,20.50
2017-09-07T05:24:55.229Z,20.50
2017-09-07T05:27:22.705Z,20.60
2017-09-07T05:29:50.967Z,20.60
2017-09-07T05:32:18.446Z,20.60
2017-09-07T05:34:45.926Z,20.60
2017-09-07T05:37:13.409Z,20.60
2017-09-07T05:39:40.896Z,20.60
2017-09-07T05:42:08.388Z,20.60
2017-09-07T05:44:35.876Z,20.60
2017-09-07T05:47:03.359Z,20.70
2017-09-07T05:49:30.851Z,20.50
2017-09-07T05:51:58.335Z,20.60
2017-09-07T05:54:25.815Z,20.50
2017-09-07T05:56:53.298Z,20.60
2017-09-07T05:59:20.773Z,20.60
2017-09-07T06:01:48.278Z,20.70
2017-09-07T06:04:15.757Z,20.60
2017-09-07T06:06:43.236Z,20.70
2017-09-07T06:09:10.714Z,20.70
2017-09-07T06:11:38.201Z,20.60
2017-09-07T06:14:05.696Z,20.90
2017-09-07T06:16:33.177Z,20.80
2017-09-07T06:19:00.683Z,20.80
2017-09-07T06:21:28.188Z,21.00
2017-09-07T06:23:55.697Z,21.10
2017-09-07T06:26:23.195Z,21.10
2017-09-07T06:28:50.686Z,21.10
2017-09-07T06:31:18.173Z,21.10
2017-09-07T06:33:45.669Z,21.10
2017-09-07T06:36:13.159Z,21.20
2017-09-07T06:38:40.643Z,21.20
2017-09-07T06:41:08.132Z,21.30
2017-09-07T06:43:35.609Z,21.60
2017-09-07T06:46:03.118Z,22.00
2017-09-07T06:48:30.623Z,21.90
2017-09-07T06:50:58.114Z,21.70
2017-09-07T06:53:25.595Z,21.60
2017-09-07T06:55:53.095Z,21.50
2017-09-07T06:58:20.578Z,21.50
2017-09-07T07:00:48.069Z,21.50
2017-09-07T07:03:15.551Z,21.60
2017-09-07T07:05:43.040Z,21.60
2017-09-07T07:08:10.519Z,21.60
2017-09-07T07:10:38.001Z,21.50
2017-09-07T07:13:05.478Z,21.50
2017-09-07T07:15:32.972Z,21.60
2017-09-07T07:18:00.511Z,21.60
2017-09-07T07:20:28.017Z,21.70
2017-09-07T07:22:55.555Z,21.70
2017-09-07T07:25:23.561Z,21.90
2017-09-07T07:27:51.042Z,21.90
2017-09-07T07:30:18.544Z,21.80
2017-09-07T07:32:46.066Z,21.80
2017-09-07T07:35:13.556Z,22.00
2017-09-07T07:37:41.045Z,22.00
2017-09-07T07:40:09.301Z,21.90
2017-09-07T07:42:36.980Z,21.90
2017-09-07T07:45:04.791Z,22.10
2017-09-07T07:47:32.760Z,22.10
2017-09-07T07:50:01.094Z,22.30
2017-09-07T07:52:29.316Z,22.50
2017-09-07T07:54:57.286Z,22.40
2017-09-07T07:57:25.397Z,22.30
2017-09-07T07:59:54.008Z,22.30
2017-09-07T08:02:22.434Z,22.50
2017-09-07T08:04:50.152Z,22.50
2017-09-07T08:07:18.234Z,22.50
2017-09-07T08:09:46.054Z,22.70
2017-09-07T08:12:13.692Z,22.70
2017-09-07T08:14:41.589Z,22.80
2017-09-07T08:17:09.446Z,22.80
2017-09-07T08:19:37.193Z,22.90
2017-09-07T08:22:04.761Z,22.90
2017-09-07T08:24:33.040Z,22.90
2017-09-07T08:27:00.532Z,22.80
2017-09-07T08:29:28.028Z,23.00
2017-09-07T08:31:55.638Z,22.90
2017-09-07T08:34:23.136Z,23.00
2017-09-07T08:36:50.608Z,23.10
2017-09-07T08:39:18.091Z,23.20
2017-09-07T08:41:45.592Z,23.20
2017-09-07T08:44:13.078Z,23.30
2017-09-07T08:46:40.586Z,23.30
2017-09-07T08:49:09.321Z,23.20
2017-09-07T08:51:36.793Z,23.30
2017-09-07T08:54:04.271Z,23.20
2017-09-07T08:56:31.772Z,23.20
2017-09-07T08:58:59.395Z,23.20
2017-09-07T09:01:26.896Z,23.20
2017-09-07T09:03:54.384Z,23.30
2017-09-07T09:06:22.007Z,23.30
2017-09-07T09:08:49.602Z,23.40
2017-09-07T09:11:17.087Z,23.50
2017-09-07T09:13:44.580Z,23.40
2017-09-07T09:16:12.056Z,23.60
2017-09-07T09:18:40.072Z,23.60
2017-09-07T09:21:07.572Z,23.50
2017-09-07T09:23:35.072Z,23.50
2017-09-07T09:26:02.862Z,23.40
2017-09-07T09:28:30.429Z,23.50
2017-09-07T09:30:57.950Z,23.60
2017-09-07T09:33:25.443Z,23.70
2017-09-07T09:35:52.934Z,23.80
2017-09-07T09:38:20.446Z,23.90
2017-09-07T09:40:47.987Z,23.90
2017-09-07T09:43:15.500Z,24.20
2017-09-07T09:45:43.118Z,24.10
2017-09-07T09:48:17.272Z,24.10
2017-09-07T09:50:45.376Z,24.00
2017-09-07T09:53:13.229Z,23.90
2017-09-07T09:55:41.540Z,24.00
2017-09-07T09:58:09.026Z,24.00
2017-09-07T10:00:36.556Z,23.90
2017-09-07T10:03:04.060Z,24.00
2017-09-07T10:05:31.546Z,24.00
2017-09-07T10:07:59.080Z,24.00
2017-09-07T10:10:26.567Z,24.00
2017-09-07T10:12:54.063Z,24.00
2017-09-07T10:15:22.233Z,23.90
2017-09-07T10:17:49.718Z,24.00
2017-09-07T10:20:17.197Z,24.00
2017-09-07T10:22:44.672Z,24.20
2017-09-07T10:25:12.203Z,24.60
2017-09-07T10:27:39.704Z,24.60
2017-09-07T10:30:07.194Z,24.70
2017-09-07T10:32:34.669Z,24.60
2017-09-07T10:35:02.149Z,24.50
2017-09-07T10:37:29.646Z,24.40
2017-09-07T10:39:57.135Z,24.40
2017-09-07T10:42:24.636Z,24.40
2017-09-07T10:44:52.136Z,24.30
2017-09-07T10:47:19.624Z,24.30
2017-09-07T10:49:47.296Z,24.30
2017-09-07T10:52:15.478Z,24.40
2017-09-07T10:54:43.134Z,24.60
2017-09-07T10:57:10.682Z,24.50
2017-09-07T10:59:38.384Z,24.50
2017-09-07T11:02:05.972Z,24.40
2017-09-07T11:04:33.462Z,24.30
2017-09-07T11:07:00.943Z,24.50
2017-09-07T11:09:28.448Z,24.40
2017-09-07T11:12:26.094Z,24.30
2017-09-07T11:14:53.615Z,24.30
2017-09-07T11:17:21.094Z,24.40
2017-09-07T11:19:48.578Z,24.40
2017-09-07T11:22:16.074Z,24.40
2017-09-07T11:24:43.550Z,24.30
2017-09-07T11:27:11.035Z,24.40
2017-09-07T11:29:38.519Z,24.30
2017-09-07T11:32:06.007Z,24.60
2017-09-07T11:34:34.245Z,24.50
2017-09-07T11:37:01.730Z,24.50
2017-09-07T11:39:29.978Z,24.80
2017-09-07T11:41:57.475Z,24.70
2017-09-07T11:44:24.971Z,24.70
2017-09-07T11:46:52.466Z,24.80
2017-09-07T11:49:20.236Z,24.60
2017-09-07T11:51:48.581Z,25.00
2017-09-07T11:54:16.279Z,24.90
2017-09-07T11:56:44.963Z,24.70
2017-09-07T11:59:12.442Z,24.60
2017-09-07T12:01:40.078Z,24.60
2017-09-07T12:04:07.570Z,24.90
2017-09-07T12:06:37.376Z,25.30
2017-09-07T12:09:05.635Z,25.10
2017-09-07T12:11:33.130Z,25.10
2017-09-07T12:14:00.670Z,25.20
2017-09-07T12:16:28.923Z,25.20
2017-09-07T12:18:56.694Z,25.20
2017-09-07T12:21:24.565Z,25.00
2017-09-07T12:23:52.057Z,25.20
2017-09-07T12:26:21.270Z,25.30
2017-09-07T12:28:48.754Z,25.20
2017-09-07T12:31:16.263Z,25.50
2017-09-07T12:33:44.514Z,25.20
2017-09-07T12:36:12.006Z,25.20
2017-09-07T12:38:40.269Z,25.00
2017-09-07T12:41:08.532Z,25.20
2017-09-07T12:43:36.022Z,25.20
2017-09-07T12:46:04.281Z,25.50
2017-09-07T12:48:32.546Z,25.70
2017-09-07T12:51:00.031Z,25.60
2017-09-07T12:53:28.351Z,25.70
2017-09-07T12:55:55.855Z,25.60
2017-09-07T12:58:24.135Z,25.90
2017-09-07T13:00:52.394Z,25.90
2017-09-07T13:03:19.886Z,25.80
2017-09-07T13:05:48.143Z,25.80
2017-09-07T13:08:16.469Z,25.50
2017-09-07T13:10:44.016Z,25.50
2017-09-07T13:13:11.529Z,25.50
2017-09-07T13:15:39.030Z,25.40
2017-09-07T13:18:06.517Z,25.50
2017-09-07T13:20:34.027Z,25.60
2017-09-07T13:23:02.301Z,25.70
2017-09-07T13:25:29.814Z,25.70
2017-09-07T13:27:57.330Z,25.60
2017-09-07T13:30:26.006Z,25.60
2017-09-07T13:32:54.957Z,25.50
2017-09-07T13:35:22.469Z,25.50
2017-09-07T13:37:49.965Z,25.60
2017-09-07T13:40:17.476Z,25.70
2017-09-07T13:42:45.734Z,26.20
2017-09-07T13:45:13.223Z,26.10
2017-09-07T13:47:41.490Z,25.90
2017-09-07T13:50:09.742Z,25.70
2017-09-07T13:52:37.239Z,25.70
2017-09-07T13:55:05.496Z,25.60
2017-09-07T13:57:33.754Z,25.50
2017-09-07T14:00:01.250Z,25.50
2017-09-07T14:02:29.497Z,25.50
2017-09-07T14:04:56.996Z,25.50
2017-09-07T14:07:24.494Z,25.60
2017-09-07T14:09:51.978Z,25.70
2017-09-07T14:12:19.466Z,25.60
2017-09-07T14:14:47.717Z,25.50
2017-09-07T14:17:15.210Z,25.50
2017-09-07T14:19:42.693Z,25.60
2017-09-07T14:22:10.203Z,25.70
2017-09-07T14:24:38.469Z,25.80
2017-09-07T14:27:05.962Z,25.80
2017-09-07T14:29:33.449Z,25.90
2017-09-07T14:32:00.955Z,25.90
2017-09-07T14:34:28.460Z,25.90
2017-09-07T14:36:55.966Z,25.90
2017-09-07T14:39:23.454Z,26.00
2017-09-07T14:41:51.698Z,26.10
2017-09-07T14:44:19.199Z,26.10
2017-09-07T14:46:46.682Z,26.10
2017-09-07T14:49:14.186Z,26.20
2017-09-07T14:51:42.558Z,26.20
2017-09-07T14:54:10.078Z,26.00
2017-09-07T14:56:37.639Z,25.70
2017-09-07T14:59:05.197Z,25.60
2017-09-07T15:01:32.686Z,25.60
2017-09-07T15:04:00.165Z,25.40
2017-09-07T15:06:27.652Z,25.40
2017-09-07T15:08:55.131Z,25.40
2017-09-07T15:11:22.617Z,25.30
2017-09-07T15:13:50.249Z,25.20
2017-09-07T15:16:18.020Z,25.10
2017-09-07T15:18:45.786Z,25.00
2017-09-07T15:21:14.150Z,24.90
2017-09-07T15:23:42.541Z,24.80
2017-09-07T15:26:10.309Z,24.80
2017-09-07T15:28:38.328Z,24.70
2017-09-07T15:31:06.659Z,24.70
2017-09-07T15:33:34.324Z,24.70
2017-09-07T15:36:02.407Z,24.80
2017-09-07T15:38:30.170Z,24.80
2017-09-07T15:40:58.246Z,24.80
2017-09-07T15:43:26.484Z,24.80
2017-09-07T15:45:55.245Z,24.70
2017-09-07T15:48:23.527Z,24.60
2017-09-07T15:50:52.618Z,24.70
2017-09-07T15:53:21.048Z,24.60
2017-09-07T15:55:48.770Z,24.60
2017-09-07T15:58:16.265Z,24.60
2017-09-07T16:00:43.807Z,24.50
2017-09-07T16:03:12.304Z,24.60
2017-09-07T16:05:39.984Z,24.60
2017-09-07T16:08:08.098Z,24.60
2017-09-07T16:10:36.346Z,24.60
2017-09-07T16:13:03.917Z,24.60
2017-09-07T16:15:31.878Z,24.60
2017-09-07T16:17:59.538Z,24.60
2017-09-07T16:20:27.692Z,24.60
2017-09-07T16:22:55.574Z,24.50
2017-09-07T16:25:23.944Z,24.40
2017-09-07T16:27:51.745Z,24.50
2017-09-07T16:30:20.335Z,24.60
2017-09-07T16:32:48.885Z,24.60
2017-09-07T16:35:17.061Z,24.50
2017-09-07T16:37:44.860Z,24.50
2017-09-07T16:40:12.405Z,24.50
2017-09-07T16:42:39.908Z,24.50
2017-09-07T16:45:08.281Z,24.60
2017-09-07T16:47:37.223Z,24.60
2017-09-07T16:50:04.994Z,24.60
2017-09-07T16:52:32.831Z,24.70
2017-09-07T16:55:01.030Z,24.70
2017-09-07T16:57:28.612Z,24.70
2017-09-07T16:59:56.642Z,24.70
2017-09-07T17:02:24.311Z,24.80
2017-09-07T17:04:52.651Z,24.80
2017-09-07T17:07:20.278Z,24.80
2017-09-07T17:09:48.132Z,24.90
2017-09-07T17:12:15.801Z,24.80
2017-09-07T17:14:43.342Z,24.70
2017-09-07T17:17:10.911Z,24.70
2017-09-07T17:19:38.785Z,24.60
2017-09-07T17:22:06.967Z,24.50
2017-09-07T17:24:34.621Z,24.50
2017-09-07T17:27:02.579Z,24.60
2017-09-07T17:29:30.558Z,24.60
2017-09-07T17:31:59.199Z,24.40
2017-09-07T17:34:27.708Z,24.10
2017-09-07T17:36:56.511Z,24.20
2017-09-07T17:39:25.352Z,23.90
2017-09-07T17:41:54.069Z,23.80
2017-09-07T17:44:22.662Z,23.70
2017-09-07T17:46:51.522Z,23.90
2017-09-07T17:49:19.587Z,23.80
2017-09-07T17:51:47.855Z,23.80
2017-09-07T17:54:15.378Z,23.70
2017-09-07T17:56:43.459Z,23.60
2017-09-07T17:59:11.742Z,23.50
2017-09-07T18:01:39.399Z,23.40
2017-09-07T18:04:07.564Z,23.30
2017-09-07T18:06:35.322Z,23.20
2017-09-07T18:09:03.719Z,23.10
2017-09-07T18:11:32.712Z,23.00
2017-09-07T18:14:00.685Z,23.00
2017-09-07T18:16:28.498Z,22.90
2017-09-07T18:18:56.930Z,22.90
2017-09-07T18:21:24.719Z,22.90
2017-09-07T18:23:52.585Z,23.10
2017-09-07T18:26:20.843Z,23.00
2017-09-07T18:28:48.418Z,22.90
2017-09-07T18:31:16.534Z,22.70
2017-09-07T18:33:45.068Z,22.60
2017-09-07T18:36:12.835Z,22.60
2017-09-07T18:38:41.500Z,22.90
2017-09-07T18:41:10.381Z,23.00
2017-09-07T18:43:39.351Z,22.90
2017-09-07T18:46:07.633Z,22.90
2017-09-07T18:48:36.055Z,23.00
2017-09-07T18:51:03.774Z,22.90
2017-09-07T18:53:32.434Z,23.00
2017-09-07T18:56:00.402Z,23.00
2017-09-07T18:58:28.618Z,22.90
2017-09-07T19:00:57.861Z,23.40
2017-09-07T19:03:25.852Z,23.30
2017-09-07T19:05:53.909Z,23.50
2017-09-07T19:08:22.083Z,23.60
2017-09-07T19:10:49.998Z,23.30
2017-09-07T19:13:18.666Z,23.30
2017-09-07T19:15:46.356Z,23.30
2017-09-07T19:18:14.987Z,23.30
2017-09-07T19:20:43.371Z,23.20
2017-09-07T19:23:11.537Z,23.40
2017-09-07T19:25:39.374Z,23.40
2017-09-07T19:28:07.817Z,23.30
2017-09-07T19:30:35.383Z,23.20
2017-09-07T19:33:04.056Z,23.30
2017-09-07T19:35:32.210Z,23.30
2017-09-07T19:38:00.274Z,23.30
2017-09-07T19:40:28.857Z,23.20
2017-09-07T19:42:56.805Z,23.30
2017-09-07T19:45:26.401Z,23.30
2017-09-07T19:47:55.289Z,23.00
2017-09-07T19:50:23.979Z,23.00
2017-09-07T19:52:53.010Z,23.30
2017-09-07T19:55:21.385Z,23.20
2017-09-07T19:57:49.462Z,23.10
2017-09-07T20:00:18.451Z,22.90
2017-09-07T20:02:46.583Z,22.90
2017-09-07T20:05:14.531Z,23.00
2017-09-07T20:07:42.571Z,22.90
2017-09-07T20:10:10.356Z,22.40
2017-09-07T20:12:38.412Z,22.30
2017-09-07T20:15:06.799Z,22.50
2017-09-07T20:17:34.807Z,22.30
2017-09-07T20:20:02.514Z,22.40
2017-09-07T20:22:31.208Z,21.90
2017-09-07T20:24:58.931Z,21.80
2017-09-07T20:27:26.564Z,21.90
2017-09-07T20:29:54.146Z,22.10
2017-09-07T20:32:23.215Z,22.20
2017-09-07T20:34:50.694Z,22.20
2017-09-07T20:37:18.990Z,22.10
2017-09-07T20:39:47.244Z,22.40
2017-09-07T20:42:14.991Z,22.40
2017-09-07T20:44:42.679Z,22.50
2017-09-07T20:47:10.226Z,22.60
2017-09-07T20:49:37.731Z,22.70
2017-09-07T20:52:05.988Z,23.00
2017-09-07T20:54:33.474Z,23.00
2017-09-07T20:57:00.962Z,22.90
2017-09-07T20:59:28.433Z,23.00
2017-09-07T21:01:55.907Z,23.00
2017-09-07T21:04:23.395Z,22.70
2017-09-07T21:06:51.646Z,22.90
2017-09-07T21:09:19.121Z,22.90
2017-09-07T21:11:47.374Z,22.50
2017-09-07T21:14:14.858Z,22.50
2017-09-07T21:16:43.121Z,22.80
2017-09-07T21:19:11.257Z,22.80
2017-09-07T21:21:40.548Z,22.70
2017-09-07T21:24:08.217Z,22.60
2017-09-07T21:26:36.235Z,22.40
2017-09-07T21:29:05.868Z,22.50
2017-09-07T21:31:34.924Z,22.80
2017-09-07T21:34:02.666Z,22.80
2017-09-07T21:36:30.946Z,22.60
2017-09-07T21:38:58.495Z,22.20
2017-09-07T21:41:25.982Z,21.90
2017-09-07T21:43:53.556Z,22.10
2017-09-07T21:46:21.351Z,22.30
2017-09-07T21:48:50.502Z,22.00
2017-09-07T21:51:19.743Z,21.90
2017-09-07T21:53:47.986Z,21.90
2017-09-07T21:56:15.543Z,21.80
2017-09-07T21:58:43.058Z,21.60
2017-09-07T22:01:10.587Z,21.70
2017-09-07T22:03:39.789Z,21.50
2017-09-07T22:06:07.500Z,21.40
2017-09-07T22:08:35.014Z,21.60
2017-09-07T22:11:03.457Z,21.80
2017-09-07T22:13:31.101Z,21.80
2017-09-07T22:15:58.817Z,21.80
2017-09-07T22:18:26.391Z,21.80
2017-09-07T22:20:54.912Z,21.90
2017-09-07T22:23:22.505Z,21.90
2017-09-07T22:25:49.987Z,21.70
2017-09-07T22:28:18.243Z,21.70
2017-09-07T22:30:45.727Z,21.70
2017-09-07T22:33:13.206Z,21.60
2017-09-07T22:35:40.683Z,21.90
2017-09-07T22:38:08.162Z,22.30
2017-09-07T22:40:35.640Z,22.40
2017-09-07T22:43:03.118Z,21.90
2017-09-07T22:45:31.364Z,21.70
2017-09-07T22:47:58.856Z,21.70
2017-09-07T22:50:27.101Z,21.50
2017-09-07T22:52:54.600Z,21.50
2017-09-07T22:55:22.851Z,21.20
2017-09-07T22:57:50.351Z,21.10
2017-09-07T23:00:17.839Z,21.10
2017-09-07T23:02:45.319Z,21.10
2017-09-07T23:05:12.801Z,21.00
2017-09-07T23:07:41.051Z,21.00
2017-09-07T23:10:08.540Z,20.90
2017-09-07T23:12:36.798Z,20.80
2017-09-07T23:15:04.282Z,20.70
2017-09-07T23:17:32.535Z,20.90
2017-09-07T23:20:00.028Z,20.90
2017-09-07T23:22:27.519Z,20.90
2017-09-07T23:24:55.020Z,20.90
2017-09-07T23:27:22.503Z,20.90
2017-09-07T23:29:50.763Z,20.70
2017-09-07T23:32:18.245Z,20.70
2017-09-07T23:34:46.503Z,21.00
2017-09-07T23:37:13.993Z,21.00
2017-09-07T23:39:41.520Z,20.80
2017-09-07T23:42:09.771Z,20.80
2017-09-07T23:44:37.254Z,20.70
2017-09-07T23:47:05.489Z,20.70
2017-09-07T23:49:33.392Z,20.70
2017-09-07T23:52:01.311Z,20.70
2017-09-07T23:54:28.976Z,20.70
2017-09-07T23:56:56.511Z,20.60
2017-09-07T23:59:24.045Z,20.90
